This is the latest recevied weather packets stored in our database for station/object eb1ayw-13. If no packets are shown the sender has not sent any weather packets the latest 10 day(s).
| Time | Temp. | Humidity | Pressure | Rain* | Wind** | Luminosity | Snow |
|---|---|---|---|---|---|---|---|
| 1778087869 | 41.67° C | 12% | 1000.2 hPa | - | - | - | - |
| 1778087269 | 46.67° C | 9% | 998.9 hPa | - | - | - | - |
| 1778086669 | 42.78° C | 11% | 1000 hPa | - | - | - | - |
| 1778086069 | 47.22° C | 9% | 998.8 hPa | - | - | - | - |
| 1778085469 | 43.33° C | 10% | 999.8 hPa | - | - | - | - |
| 1778084869 | 43.89° C | 10% | 999.7 hPa | - | - | - | - |
| 1778084269 | 46.11° C | 9% | 999.1 hPa | - | - | - | - |
| 1778083669 | 47.22° C | 8% | 998.9 hPa | - | - | - | - |
| 1778083069 | 45.56° C | 10% | 999.4 hPa | - | - | - | - |
| 1778082469 | 43.89° C | 10% | 999.8 hPa | - | - | - | - |
| 1778081869 | 45.56° C | 9% | 999.6 hPa | - | - | - | - |
| 1778081269 | 40° C | 11% | 1001.1 hPa | - | - | - | - |
| 1778080669 | 44.44° C | 10% | 1000.2 hPa | - | - | - | - |
| 1778080069 | 45.56° C | 9% | 1000 hPa | - | - | - | - |
| 1778079469 | 41.67° C | 11% | 1000.9 hPa | - | - | - | - |
| 1778078869 | 39.44° C | 12% | 1001.5 hPa | - | - | - | - |
| 1778078269 | 44.44° C | 10% | 1000.5 hPa | - | - | - | - |
| 1778077669 | 38.33° C | 13% | 1002.1 hPa | - | - | - | - |
| 1778077069 | 39.44° C | 12% | 1001.9 hPa | - | - | - | - |
| 1778076469 | 39.44° C | 12% | 1002.1 hPa | - | - | - | - |
| 1778075869 | 42.78° C | 10% | 1001.3 hPa | - | - | - | - |
| 1778075269 | 41.67° C | 11% | 1001.6 hPa | - | - | - | - |
| 1778074669 | 40.56° C | 11% | 1002 hPa | - | - | - | - |
| 1778074069 | 45.56° C | 9% | 1000.8 hPa | - | - | - | - |
| 1778073469 | 43.33° C | 10% | 1001.5 hPa | - | - | - | - |
* Rain since midnight (hover to see other rain measurements)
** Current wind speed in m/s (hover to see current wind gust speed)